createdAt,value
2022-09-21T00:00:45.403Z,17.80
2022-09-21T00:03:12.468Z,17.80
2022-09-21T00:05:39.260Z,17.90
2022-09-21T00:08:07.127Z,17.80
2022-09-21T00:10:34.164Z,17.90
2022-09-21T00:13:03.025Z,17.80
2022-09-21T00:15:30.186Z,17.80
2022-09-21T00:17:57.799Z,17.80
2022-09-21T00:20:25.228Z,17.70
2022-09-21T00:22:52.180Z,17.80
2022-09-21T00:25:19.392Z,17.70
2022-09-21T00:27:48.724Z,17.70
2022-09-21T00:30:15.568Z,17.70
2022-09-21T00:32:42.412Z,17.70
2022-09-21T00:35:17.604Z,17.70
2022-09-21T00:37:46.662Z,17.70
2022-09-21T00:40:13.655Z,17.70
2022-09-21T00:42:40.502Z,17.70
2022-09-21T00:45:25.043Z,17.70
2022-09-21T00:47:54.487Z,17.80
2022-09-21T00:50:24.233Z,17.80
2022-09-21T00:52:53.670Z,17.90
2022-09-21T00:55:43.192Z,17.90
2022-09-21T00:58:15.775Z,18.00
2022-09-21T01:00:43.633Z,18.00
2022-09-21T01:03:12.207Z,18.00
2022-09-21T01:05:39.063Z,18.10
2022-09-21T01:08:07.667Z,18.20
2022-09-21T01:10:44.819Z,18.20
2022-09-21T01:13:32.224Z,18.00
2022-09-21T01:16:14.626Z,18.00
2022-09-21T01:18:48.556Z,17.90
2022-09-21T01:21:26.574Z,17.90
2022-09-21T01:23:57.317Z,17.80
2022-09-21T01:26:24.157Z,17.90
2022-09-21T01:28:54.211Z,18.00
2022-09-21T01:31:24.501Z,17.90
2022-09-21T01:33:53.684Z,17.90
2022-09-21T01:36:24.980Z,17.70
2022-09-21T01:38:55.229Z,17.70
2022-09-21T01:41:26.097Z,17.60
2022-09-21T01:43:55.742Z,17.60
2022-09-21T01:46:25.816Z,17.50
2022-09-21T01:48:55.164Z,17.40
2022-09-21T01:51:25.432Z,17.50
2022-09-21T01:54:11.577Z,17.40
2022-09-21T01:56:41.165Z,17.40
2022-09-21T01:59:16.221Z,17.40
2022-09-21T02:01:49.380Z,17.30
2022-09-21T02:04:16.403Z,17.30
2022-09-21T02:06:44.945Z,17.30
2022-09-21T02:09:12.263Z,17.20
2022-09-21T02:11:42.530Z,17.20
2022-09-21T02:14:13.896Z,17.10
2022-09-21T02:16:57.406Z,17.10
2022-09-21T02:19:26.671Z,17.10
2022-09-21T02:22:03.689Z,17.10
2022-09-21T02:24:38.382Z,17.10
2022-09-21T02:27:06.577Z,17.00
2022-09-21T02:29:51.767Z,17.00
2022-09-21T02:32:21.007Z,17.10
2022-09-21T02:34:52.663Z,16.90
2022-09-21T02:37:31.241Z,16.70
2022-09-21T02:40:09.793Z,16.50
2022-09-21T02:42:39.388Z,16.40
2022-09-21T02:45:26.916Z,16.30
2022-09-21T02:48:23.167Z,16.20
2022-09-21T02:50:58.117Z,16.10
2022-09-21T02:53:27.290Z,15.90
2022-09-21T02:55:56.599Z,15.90
2022-09-21T02:58:25.947Z,15.80
2022-09-21T03:00:54.690Z,15.70
2022-09-21T03:03:22.303Z,15.60
2022-09-21T03:05:49.906Z,15.70
2022-09-21T03:08:17.214Z,15.70
2022-09-21T03:10:44.054Z,15.70
2022-09-21T03:13:11.107Z,15.70
2022-09-21T03:15:38.625Z,15.70
2022-09-21T03:18:06.090Z,15.70
2022-09-21T03:20:33.331Z,15.80
2022-09-21T03:23:00.735Z,15.80
2022-09-21T03:25:28.038Z,15.80
2022-09-21T03:27:54.894Z,15.90
2022-09-21T03:30:22.235Z,15.80
2022-09-21T03:32:50.456Z,15.80
2022-09-21T03:35:17.954Z,15.80
2022-09-21T03:37:46.055Z,15.70
2022-09-21T03:40:13.132Z,15.80
2022-09-21T03:42:40.217Z,15.80
2022-09-21T03:45:08.028Z,16.00
2022-09-21T03:47:35.052Z,16.00
2022-09-21T03:50:01.827Z,16.10
2022-09-21T03:52:28.764Z,16.00
2022-09-21T03:54:55.544Z,16.10
2022-09-21T03:57:22.482Z,16.10
2022-09-21T03:59:49.283Z,16.10
2022-09-21T04:02:16.510Z,16.10
2022-09-21T04:04:43.609Z,16.10
2022-09-21T04:07:10.541Z,16.20
2022-09-21T04:09:37.287Z,16.20
2022-09-21T04:12:04.286Z,16.20
2022-09-21T04:14:31.474Z,16.20
2022-09-21T04:16:58.526Z,16.20
2022-09-21T04:19:25.314Z,16.30
2022-09-21T04:21:52.222Z,16.30
2022-09-21T04:24:19.428Z,16.40
2022-09-21T04:26:46.430Z,16.40
2022-09-21T04:29:13.799Z,16.40
2022-09-21T04:31:40.807Z,16.40
2022-09-21T04:34:12.151Z,16.40
2022-09-21T04:36:38.897Z,16.50
2022-09-21T04:39:06.062Z,16.50
2022-09-21T04:41:32.826Z,16.50
2022-09-21T04:43:59.875Z,16.50
2022-09-21T04:46:26.650Z,16.50
2022-09-21T04:48:53.438Z,16.50
2022-09-21T04:51:20.198Z,16.60
2022-09-21T04:53:47.046Z,16.70
2022-09-21T04:56:14.628Z,16.70
2022-09-21T04:58:41.643Z,16.70
2022-09-21T05:01:08.509Z,16.70
2022-09-21T05:03:35.400Z,16.70
2022-09-21T05:06:02.591Z,16.70
2022-09-21T05:08:48.099Z,16.80
2022-09-21T05:11:16.612Z,16.80
2022-09-21T05:13:43.447Z,16.80
2022-09-21T05:16:10.312Z,16.80
2022-09-21T05:18:37.374Z,16.80
2022-09-21T05:21:04.758Z,16.80
2022-09-21T05:23:32.139Z,16.70
2022-09-21T05:25:59.511Z,16.80
2022-09-21T05:28:26.925Z,16.80
2022-09-21T05:31:16.711Z,16.80
2022-09-21T05:33:50.688Z,16.80
2022-09-21T05:36:26.844Z,16.80
2022-09-21T05:38:53.980Z,16.80
2022-09-21T05:41:20.936Z,16.80
2022-09-21T05:43:47.838Z,16.90
2022-09-21T05:46:19.908Z,16.90
2022-09-21T05:48:56.718Z,16.90
2022-09-21T05:51:34.938Z,16.90
2022-09-21T05:54:04.769Z,17.00
2022-09-21T05:56:40.915Z,16.90
2022-09-21T05:59:08.737Z,17.00
2022-09-21T06:01:39.123Z,17.10
2022-09-21T06:04:08.245Z,17.00
2022-09-21T06:06:37.536Z,17.00
2022-09-21T06:09:04.886Z,17.00
2022-09-21T06:11:32.179Z,17.10
2022-09-21T06:14:00.477Z,17.20
2022-09-21T06:16:27.334Z,17.20
2022-09-21T06:18:54.709Z,17.20
2022-09-21T06:21:21.587Z,17.20
2022-09-21T06:23:51.140Z,17.20
2022-09-21T06:26:18.035Z,17.20
2022-09-21T06:28:44.866Z,17.20
2022-09-21T06:31:11.691Z,17.30
2022-09-21T06:33:38.454Z,17.40
2022-09-21T06:36:05.436Z,17.30
2022-09-21T06:38:32.480Z,17.30
2022-09-21T06:41:03.527Z,17.30
2022-09-21T06:43:31.002Z,17.30
2022-09-21T06:46:01.749Z,17.20
2022-09-21T06:48:29.477Z,17.20
2022-09-21T06:50:57.477Z,17.30
2022-09-21T06:53:24.705Z,17.30
2022-09-21T06:55:52.359Z,17.40
2022-09-21T06:58:19.401Z,17.40
2022-09-21T07:00:46.797Z,17.40
2022-09-21T07:03:14.223Z,17.40
2022-09-21T07:05:44.424Z,17.40
2022-09-21T07:10:04.879Z,17.40
2022-09-21T07:10:58.788Z,17.40
2022-09-21T07:13:26.095Z,17.50
2022-09-21T07:15:53.495Z,17.50
2022-09-21T07:18:21.162Z,17.60
2022-09-21T07:20:51.855Z,17.70
2022-09-21T07:23:19.642Z,17.70
2022-09-21T07:25:49.246Z,17.80
2022-09-21T07:28:16.298Z,17.80
2022-09-21T07:30:43.246Z,17.80
2022-09-21T07:33:10.036Z,17.80
2022-09-21T07:35:36.913Z,17.90
2022-09-21T07:38:05.243Z,17.90
2022-09-21T07:40:32.247Z,18.00
2022-09-21T07:42:59.509Z,18.10
2022-09-21T07:45:26.687Z,18.00
2022-09-21T07:47:56.804Z,18.10
2022-09-21T07:50:23.737Z,18.10
2022-09-21T07:52:50.670Z,18.20
2022-09-21T07:55:17.462Z,18.20
2022-09-21T07:58:03.030Z,18.20
2022-09-21T08:00:32.802Z,18.20
2022-09-21T08:03:01.268Z,18.30
2022-09-21T08:05:28.006Z,18.30
2022-09-21T08:07:58.106Z,18.40
2022-09-21T08:10:28.246Z,18.50
2022-09-21T08:12:55.298Z,18.60
2022-09-21T08:15:47.016Z,18.70
2022-09-21T08:18:09.022Z,18.70
2022-09-21T08:20:35.759Z,18.70
2022-09-21T08:23:02.556Z,18.80
2022-09-21T08:25:30.337Z,18.90
2022-09-21T08:27:57.986Z,19.10
2022-09-21T08:30:28.000Z,19.20
2022-09-21T08:32:55.283Z,19.30
2022-09-21T08:35:22.054Z,19.40
2022-09-21T08:37:51.120Z,19.40
2022-09-21T08:40:19.786Z,19.20
2022-09-21T08:42:57.325Z,19.40
2022-09-21T08:45:26.727Z,19.50
2022-09-21T08:47:56.596Z,19.50
2022-09-21T08:50:29.745Z,19.60
2022-09-21T08:53:17.860Z,19.90
2022-09-21T08:55:44.723Z,20.00
2022-09-21T08:58:23.320Z,20.00
2022-09-21T09:01:12.540Z,19.80
2022-09-21T09:03:48.544Z,19.90
2022-09-21T09:06:18.388Z,19.80
2022-09-21T09:08:45.647Z,19.90
2022-09-21T09:11:15.469Z,20.10
2022-09-21T09:14:01.145Z,20.20
2022-09-21T09:16:44.219Z,20.40
2022-09-21T09:19:17.232Z,20.60
2022-09-21T09:21:44.508Z,20.70
2022-09-21T09:24:12.956Z,20.90
2022-09-21T09:26:45.545Z,21.00
2022-09-21T09:29:22.480Z,21.20
2022-09-21T09:31:50.182Z,21.30
2022-09-21T09:34:21.131Z,21.30
2022-09-21T09:36:59.276Z,21.20
2022-09-21T09:39:28.434Z,21.10
2022-09-21T09:42:13.585Z,21.20
2022-09-21T09:44:40.370Z,21.30
2022-09-21T09:47:32.373Z,21.20
2022-09-21T09:50:06.811Z,21.20
2022-09-21T09:52:34.097Z,21.30
2022-09-21T09:55:01.696Z,21.50
2022-09-21T09:57:33.428Z,21.70
2022-09-21T10:00:07.404Z,21.70
2022-09-21T10:05:33.425Z,21.70
2022-09-21T10:08:00.770Z,21.80
2022-09-21T10:10:37.943Z,21.80
2022-09-21T10:13:23.193Z,21.90
2022-09-21T10:15:51.865Z,22.00
2022-09-21T10:18:42.017Z,22.00
2022-09-21T10:21:10.180Z,22.10
2022-09-21T10:23:37.719Z,22.10
2022-09-21T10:26:09.012Z,22.20
2022-09-21T10:28:36.274Z,22.10
2022-09-21T10:31:11.044Z,22.30
2022-09-21T10:33:56.771Z,22.40
2022-09-21T10:36:28.181Z,22.30
2022-09-21T10:38:55.197Z,22.50
2022-09-21T10:41:22.505Z,22.60
2022-09-21T10:43:50.729Z,22.50
2022-09-21T10:46:17.991Z,22.30
2022-09-21T10:48:46.066Z,22.30
2022-09-21T10:51:27.364Z,22.40
2022-09-21T10:53:54.720Z,22.20
2022-09-21T10:56:21.695Z,22.50
2022-09-21T10:59:08.478Z,22.60
2022-09-21T11:01:35.344Z,22.90
2022-09-21T11:04:17.147Z,22.90
2022-09-21T11:06:45.875Z,23.20
2022-09-21T11:09:16.512Z,23.30
2022-09-21T11:11:53.180Z,23.40
2022-09-21T11:14:27.834Z,23.40
2022-09-21T11:17:09.351Z,23.40
2022-09-21T11:19:50.299Z,23.50
2022-09-21T11:22:31.674Z,23.70
2022-09-21T11:25:17.563Z,23.40
2022-09-21T11:27:45.616Z,23.70
2022-09-21T11:30:12.399Z,23.90
2022-09-21T11:32:59.501Z,23.90
2022-09-21T11:35:35.470Z,23.90
2022-09-21T11:38:21.076Z,24.00
2022-09-21T11:40:50.944Z,24.30
2022-09-21T11:43:19.865Z,24.50
2022-09-21T11:45:51.230Z,24.50
2022-09-21T11:48:24.169Z,24.60
2022-09-21T11:50:54.101Z,24.60
2022-09-21T11:53:41.159Z,24.70
2022-09-21T11:56:18.836Z,24.80
2022-09-21T11:58:53.114Z,24.70
2022-09-21T12:01:26.057Z,24.70
2022-09-21T12:04:16.325Z,24.70
2022-09-21T12:06:56.108Z,24.50
2022-09-21T12:09:23.519Z,24.40
2022-09-21T12:12:16.933Z,24.40
2022-09-21T12:14:43.821Z,24.60
2022-09-21T12:17:24.493Z,24.60
2022-09-21T12:20:01.360Z,24.60
2022-09-21T12:22:33.803Z,24.70
2022-09-21T12:25:06.528Z,24.60
2022-09-21T12:27:41.388Z,24.70
2022-09-21T12:30:17.083Z,24.90
2022-09-21T12:33:01.911Z,24.90
2022-09-21T12:35:46.810Z,24.80
2022-09-21T12:38:21.257Z,25.10
2022-09-21T12:40:51.750Z,25.20
2022-09-21T12:43:41.482Z,25.20
2022-09-21T12:46:15.021Z,25.30
2022-09-21T12:48:42.431Z,25.20
2022-09-21T12:51:15.571Z,24.90
2022-09-21T12:53:49.849Z,24.40
2022-09-21T12:56:27.933Z,24.40
2022-09-21T12:59:06.722Z,24.20
2022-09-21T13:01:54.817Z,24.10
2022-09-21T13:04:24.146Z,24.40
2022-09-21T13:06:57.332Z,24.70
2022-09-21T13:09:25.178Z,25.00
2022-09-21T13:11:56.884Z,25.20
2022-09-21T13:14:25.247Z,24.80
2022-09-21T13:17:01.011Z,24.50
2022-09-21T13:19:29.468Z,24.40
2022-09-21T13:22:14.462Z,24.00
2022-09-21T13:24:45.509Z,24.10
2022-09-21T13:27:13.845Z,24.10
2022-09-21T13:29:43.176Z,24.00
2022-09-21T13:32:14.507Z,23.80
2022-09-21T13:34:45.334Z,23.60
2022-09-21T13:37:13.889Z,23.50
2022-09-21T13:39:47.386Z,23.30
2022-09-21T13:42:31.840Z,23.00
2022-09-21T13:45:18.876Z,22.90
2022-09-21T13:47:47.399Z,22.70
2022-09-21T13:50:23.718Z,22.80
2022-09-21T13:52:52.681Z,23.30
2022-09-21T13:55:38.411Z,23.60
2022-09-21T13:58:07.353Z,23.90
2022-09-21T14:00:39.653Z,24.20
2022-09-21T14:03:18.281Z,24.40
2022-09-21T14:05:46.451Z,24.60
2022-09-21T14:08:16.230Z,24.40
2022-09-21T14:10:59.113Z,24.70
2022-09-21T14:13:28.797Z,25.00
2022-09-21T14:16:15.625Z,25.00
2022-09-21T14:18:42.675Z,24.60
2022-09-21T14:21:10.449Z,24.10
2022-09-21T14:23:38.319Z,23.90
2022-09-21T14:26:26.487Z,24.00
2022-09-21T14:28:54.612Z,24.00
2022-09-21T14:31:24.706Z,24.00
2022-09-21T14:33:54.786Z,24.20
2022-09-21T14:36:23.462Z,24.40
2022-09-21T14:39:00.834Z,24.80
2022-09-21T14:41:33.027Z,25.10
2022-09-21T14:44:00.211Z,25.50
2022-09-21T14:46:48.111Z,25.80
2022-09-21T14:49:21.695Z,26.10
2022-09-21T14:51:55.671Z,26.40
2022-09-21T14:54:32.047Z,26.50
2022-09-21T14:57:11.490Z,26.60
2022-09-21T15:00:00.116Z,27.00
2022-09-21T15:02:28.871Z,27.60
2022-09-21T15:05:11.091Z,28.00
2022-09-21T15:07:56.733Z,28.60
2022-09-21T15:10:55.139Z,28.90
2022-09-21T15:13:22.665Z,28.90
2022-09-21T15:16:07.237Z,28.50
2022-09-21T15:18:39.919Z,27.90
2022-09-21T15:21:20.336Z,27.70
2022-09-21T15:23:47.318Z,28.30
2022-09-21T15:26:16.227Z,28.70
2022-09-21T15:29:08.314Z,28.40
2022-09-21T15:31:36.346Z,28.70
2022-09-21T15:34:07.517Z,28.80
2022-09-21T15:36:39.401Z,28.90
2022-09-21T15:39:06.441Z,28.10
2022-09-21T15:41:41.266Z,27.60
2022-09-21T15:44:32.559Z,26.70
2022-09-21T15:47:00.588Z,25.60
2022-09-21T15:49:28.297Z,24.70
2022-09-21T15:52:01.087Z,24.10
2022-09-21T15:54:30.404Z,23.50
2022-09-21T15:56:57.826Z,23.10
2022-09-21T15:59:24.613Z,22.70
2022-09-21T16:01:55.852Z,22.30
2022-09-21T16:04:23.887Z,22.10
2022-09-21T16:07:04.579Z,22.00
2022-09-21T16:09:42.856Z,21.80
2022-09-21T16:12:28.627Z,21.80
2022-09-21T16:15:03.917Z,21.80
2022-09-21T16:17:38.303Z,21.70
2022-09-21T16:20:17.347Z,21.60
2022-09-21T16:22:45.579Z,21.50
2022-09-21T16:25:21.775Z,21.40
2022-09-21T16:27:56.289Z,21.40
2022-09-21T16:30:39.905Z,21.30
2022-09-21T16:33:25.487Z,21.20
2022-09-21T16:35:52.412Z,21.10
2022-09-21T16:38:20.359Z,21.00
2022-09-21T16:40:47.225Z,21.00
2022-09-21T16:43:15.742Z,20.90
2022-09-21T16:45:43.296Z,20.90
2022-09-21T16:48:12.526Z,20.80
2022-09-21T16:50:39.401Z,20.70
2022-09-21T16:53:07.160Z,20.50
2022-09-21T16:55:35.023Z,20.40
2022-09-21T16:58:02.087Z,20.40
2022-09-21T17:00:31.405Z,20.30
2022-09-21T17:02:58.362Z,20.20
2022-09-21T17:05:30.535Z,20.30
2022-09-21T17:07:59.497Z,20.20
2022-09-21T17:10:32.008Z,20.10
2022-09-21T17:12:59.332Z,20.00
2022-09-21T17:15:26.923Z,19.80
2022-09-21T17:17:53.780Z,19.70
2022-09-21T17:20:25.872Z,19.60
2022-09-21T17:22:52.640Z,19.50
2022-09-21T17:25:20.031Z,19.50
2022-09-21T17:27:46.987Z,19.40
2022-09-21T17:30:15.641Z,19.30
2022-09-21T17:32:43.129Z,19.30
2022-09-21T17:35:25.452Z,19.20
2022-09-21T17:37:52.234Z,19.10
2022-09-21T17:40:19.236Z,19.00
2022-09-21T17:42:48.319Z,19.00
2022-09-21T17:45:27.621Z,18.90
2022-09-21T17:47:54.564Z,18.90
2022-09-21T17:50:26.470Z,18.80
2022-09-21T17:53:12.514Z,18.70
2022-09-21T17:55:41.601Z,18.70
2022-09-21T17:58:27.163Z,18.70
2022-09-21T18:01:00.669Z,18.60
2022-09-21T18:03:29.038Z,18.60
2022-09-21T18:06:00.976Z,18.60
2022-09-21T18:09:17.397Z,18.60
2022-09-21T18:12:11.792Z,18.50
2022-09-21T18:14:48.218Z,18.50
2022-09-21T18:46:26.611Z,18.00
2022-09-21T21:16:14.135Z,16.50
2022-09-21T21:18:41.084Z,16.50
2022-09-21T21:21:07.949Z,16.50
2022-09-21T21:23:55.695Z,16.50
2022-09-21T21:26:38.142Z,16.50
2022-09-21T21:29:09.609Z,16.40
2022-09-21T21:31:36.800Z,16.50
2022-09-21T21:34:03.865Z,16.40
2022-09-21T21:36:31.318Z,16.50
2022-09-21T21:38:58.127Z,16.50
2022-09-21T21:41:24.945Z,16.50
2022-09-21T21:43:53.013Z,16.60
2022-09-21T21:46:19.896Z,16.60
2022-09-21T21:48:46.796Z,16.60
2022-09-21T21:51:13.750Z,16.60
2022-09-21T21:53:45.479Z,16.70
2022-09-21T21:56:13.380Z,16.70
2022-09-21T21:58:40.553Z,16.50
2022-09-21T22:01:12.091Z,16.60
2022-09-21T22:03:39.346Z,16.70
2022-09-21T22:06:18.536Z,16.60
2022-09-21T22:08:48.989Z,16.60
2022-09-21T22:11:17.727Z,16.70
2022-09-21T22:13:47.323Z,16.70
2022-09-21T22:16:23.607Z,16.70
2022-09-21T22:18:51.697Z,16.70
2022-09-21T22:21:21.746Z,16.70
2022-09-21T22:23:55.965Z,16.70
2022-09-21T22:26:25.972Z,16.70
2022-09-21T22:29:50.478Z,16.70
2022-09-21T22:32:17.310Z,16.80
2022-09-21T22:34:44.145Z,16.70
2022-09-21T22:37:11.243Z,16.70
2022-09-21T22:39:38.179Z,16.70
2022-09-21T22:42:04.946Z,16.80
2022-09-21T22:44:31.752Z,16.80
2022-09-21T22:46:58.542Z,16.80
2022-09-21T22:49:31.541Z,16.80
2022-09-21T22:52:04.796Z,16.80
2022-09-21T22:54:31.663Z,16.70
2022-09-21T22:57:24.849Z,16.80
2022-09-21T22:59:51.673Z,16.80
2022-09-21T23:02:18.509Z,16.70
2022-09-21T23:04:45.982Z,16.80
2022-09-21T23:07:14.741Z,16.70
2022-09-21T23:09:43.080Z,16.70
2022-09-21T23:12:13.488Z,16.70
2022-09-21T23:14:40.377Z,16.60
2022-09-21T23:17:07.319Z,16.60
2022-09-21T23:19:34.164Z,16.70
2022-09-21T23:22:01.210Z,16.60
2022-09-21T23:24:27.988Z,16.60
2022-09-21T23:26:55.341Z,16.60
2022-09-21T23:29:22.331Z,16.70
2022-09-21T23:31:49.322Z,16.80
2022-09-21T23:34:16.427Z,16.70
2022-09-21T23:36:44.049Z,16.70
2022-09-21T23:39:11.928Z,16.70
2022-09-21T23:41:39.153Z,16.80
2022-09-21T23:44:06.171Z,16.80
2022-09-21T23:46:34.935Z,16.80
2022-09-21T23:49:02.266Z,16.80
2022-09-21T23:51:32.149Z,16.80
2022-09-21T23:54:01.532Z,16.70
2022-09-21T23:56:28.897Z,16.70
2022-09-21T23:58:56.021Z,16.70
